Time;durP1;ratioP1;P1;durP2;ratioP2;P2;SDS_P1;SDS_P2;PMS_P1;PMS_P2;Temp;Humidity;BMP_temperature;BMP_pressure;BME280_temperature;BME280_humidity;BME280_pressure;Samples;Min_cycle;Max_cycle;Signal;HPM_P1;HPM_P2
2022/04/19 00:02:24;;;;;;;5.97;5.38;;;;;;;;;;5066178;28;24424;-52
2022/04/19 00:04:49;;;;;;;6.90;6.30;;;;;;;;;;5066162;28;24835;-51
2022/04/19 00:07:14;;;;;;;6.70;6.10;;;;;;;;;;5066366;28;24418;-51
2022/04/19 00:09:39;;;;;;;6.50;5.90;;;;;;;;;;5065580;28;24472;-51
2022/04/19 00:12:05;;;;;;;7.13;6.43;;;;;;;;;;5064125;28;24980;-50
2022/04/19 00:14:34;;;;;;;6.88;6.18;;;;;;;;;;5066556;28;24490;-50
2022/04/19 00:16:59;;;;;;;6.82;6.18;;;;;;;;;;5065990;28;24850;-50
2022/04/19 00:19:25;;;;;;;6.80;6.20;;;;;;;;;;5086493;28;24391;-50
2022/04/19 00:21:51;;;;;;;7.10;6.40;;;;;;;;;;5084813;28;24955;-50
2022/04/19 00:24:16;;;;;;;7.90;6.53;;;;;;;;;;5086033;28;24496;-50
2022/04/19 00:26:41;;;;;;;7.00;6.30;;;;;;;;;;5086377;28;24483;-50
2022/04/19 00:29:06;;;;;;;7.00;6.38;;;;;;;;;;5088451;28;25062;-51
2022/04/19 00:31:31;;;;;;;6.72;6.03;;;;;;;;;;5090154;28;24382;-51
2022/04/19 00:33:57;;;;;;;6.97;6.10;;;;;;;;;;5089997;28;24440;-50
2022/04/19 00:36:23;;;;;;;6.80;6.20;;;;;;;;;;5089868;28;24393;-50
2022/04/19 00:38:48;;;;;;;6.97;6.05;;;;;;;;;;5089572;28;24394;-50
2022/04/19 00:41:13;;;;;;;6.50;5.90;;;;;;;;;;5089917;28;24393;-49
2022/04/19 00:43:38;;;;;;;6.57;5.97;;;;;;;;;;5089921;28;24406;-50
2022/04/19 00:46:04;;;;;;;6.40;5.90;;;;;;;;;;5089781;28;24741;-50
2022/04/19 00:48:29;;;;;;;6.82;6.13;;;;;;;;;;5089572;28;24539;-50
2022/04/19 00:50:55;;;;;;;6.75;6.03;;;;;;;;;;5090052;28;24936;-49
2022/04/19 00:53:22;;;;;;;6.00;5.40;;;;;;;;;;5089850;28;24398;-49
2022/04/19 00:55:47;;;;;;;6.55;5.95;;;;;;;;;;5089829;28;24394;-49
2022/04/19 00:58:13;;;;;;;6.20;5.60;;;;;;;;;;5089611;28;24401;-49
2022/04/19 01:00:38;;;;;;;6.20;5.70;;;;;;;;;;5089310;28;24398;-49
2022/04/19 01:03:03;;;;;;;6.00;5.50;;;;;;;;;;5089143;28;24410;-49
2022/04/19 01:05:29;;;;;;;6.27;5.67;;;;;;;;;;5089707;28;24393;-49
2022/04/19 01:07:54;;;;;;;6.25;5.65;;;;;;;;;;5089303;28;24950;-49
2022/04/19 01:10:19;;;;;;;6.25;5.65;;;;;;;;;;5089156;28;24425;-49
2022/04/19 01:15:28;;;;;;;6.00;5.30;;;;;;;;;;5089513;28;25005;-49
2022/04/19 01:17:56;;;;;;;5.67;5.17;;;;;;;;;;5089393;28;24481;-49
2022/04/19 01:20:21;;;;;;;6.10;5.50;;;;;;;;;;5088653;28;24923;-49
2022/04/19 01:22:49;;;;;;;5.70;5.20;;;;;;;;;;5088937;28;24488;-49
2022/04/19 01:25:14;;;;;;;5.95;5.45;;;;;;;;;;5089295;28;24402;-49
2022/04/19 01:27:39;;;;;;;5.33;4.80;;;;;;;;;;5088724;28;24416;-50
2022/04/19 01:30:06;;;;;;;5.60;5.10;;;;;;;;;;5088748;28;24935;-50
2022/04/19 01:32:31;;;;;;;6.68;5.60;;;;;;;;;;5088996;28;24398;-50
2022/04/19 01:35:17;;;;;;;6.07;5.33;;;;;;;;;;5088781;28;24449;-50
2022/04/19 01:37:44;;;;;;;6.70;5.80;;;;;;;;;;5088673;28;24440;-50
2022/04/19 01:40:18;;;;;;;5.47;4.97;;;;;;;;;;5087775;28;24413;-50
2022/04/19 01:42:45;;;;;;;6.55;5.40;;;;;;;;;;5088643;28;24435;-50
2022/04/19 01:45:10;;;;;;;5.22;4.72;;;;;;;;;;5088497;28;25383;-51
2022/04/19 01:47:39;;;;;;;6.10;5.50;;;;;;;;;;5088761;28;24498;-51
2022/04/19 01:50:05;;;;;;;5.55;5.10;;;;;;;;;;5068363;28;24485;-51
2022/04/19 01:52:31;;;;;;;5.50;5.00;;;;;;;;;;5068400;28;24945;-49
2022/04/19 01:54:56;;;;;;;5.55;5.00;;;;;;;;;;5068191;28;24868;-49
2022/04/19 01:57:21;;;;;;;5.55;5.05;;;;;;;;;;5068289;28;24959;-49
2022/04/19 01:59:46;;;;;;;5.40;4.90;;;;;;;;;;5067817;28;24385;-50
2022/04/19 02:02:11;;;;;;;5.25;4.75;;;;;;;;;;5067815;28;24386;-50
2022/04/19 02:04:36;;;;;;;4.97;4.50;;;;;;;;;;5068054;28;24391;-51
2022/04/19 02:07:03;;;;;;;4.80;4.40;;;;;;;;;;5068085;28;24383;-50
2022/04/19 02:09:28;;;;;;;5.30;4.50;;;;;;;;;;5067770;28;24426;-51
2022/04/19 02:11:54;;;;;;;4.90;4.50;;;;;;;;;;5068026;28;24781;-51
2022/04/19 02:14:20;;;;;;;5.10;4.60;;;;;;;;;;5067987;28;24468;-51
2022/04/19 02:16:45;;;;;;;4.90;4.50;;;;;;;;;;5067860;28;24383;-51
2022/04/19 02:19:10;;;;;;;5.20;4.70;;;;;;;;;;5066017;28;24463;-51
2022/04/19 02:21:35;;;;;;;5.00;4.50;;;;;;;;;;5065757;28;24982;-51
2022/04/19 02:24:00;;;;;;;4.93;4.43;;;;;;;;;;5085097;28;24509;-51
2022/04/19 02:26:26;;;;;;;5.10;4.70;;;;;;;;;;5087958;28;24417;-50
2022/04/19 02:28:51;;;;;;;5.10;4.60;;;;;;;;;;5068125;28;24469;-50
2022/04/19 02:31:16;;;;;;;5.20;4.70;;;;;;;;;;5066762;28;24820;-50
2022/04/19 02:33:41;;;;;;;5.00;4.60;;;;;;;;;;5065028;28;24419;-50
2022/04/19 02:36:07;;;;;;;5.00;4.50;;;;;;;;;;5067314;28;25047;-51
2022/04/19 02:38:32;;;;;;;5.70;5.10;;;;;;;;;;5065306;28;24415;-50
2022/04/19 02:40:57;;;;;;;5.35;4.85;;;;;;;;;;5067381;28;24718;-51
2022/04/19 02:43:22;;;;;;;5.10;4.60;;;;;;;;;;5085085;28;24421;-50
2022/04/19 02:45:47;;;;;;;5.30;4.80;;;;;;;;;;5085748;28;24518;-51
2022/04/19 02:48:12;;;;;;;5.00;4.60;;;;;;;;;;5082586;28;24898;-51
2022/04/19 02:50:41;;;;;;;4.90;4.50;;;;;;;;;;5086700;28;24414;-52
2022/04/19 02:53:07;;;;;;;5.30;4.80;;;;;;;;;;5067697;28;24422;-50
2022/04/19 02:55:32;;;;;;;5.50;5.00;;;;;;;;;;5065502;28;24469;-50
2022/04/19 02:57:57;;;;;;;4.93;4.37;;;;;;;;;;5066390;28;24561;-50
2022/04/19 03:00:23;;;;;;;5.30;4.80;;;;;;;;;;5066756;28;24777;-51
2022/04/19 03:02:49;;;;;;;5.50;4.88;;;;;;;;;;5065301;28;24510;-50
2022/04/19 03:05:14;;;;;;;5.70;5.10;;;;;;;;;;5066795;28;25151;-51
2022/04/19 03:07:40;;;;;;;6.50;5.05;;;;;;;;;;5064849;28;24442;-50
2022/04/19 03:10:06;;;;;;;5.60;5.00;;;;;;;;;;5066466;28;25039;-50
2022/04/19 03:12:31;;;;;;;6.82;5.30;;;;;;;;;;5066641;28;24414;-51
2022/04/19 03:14:56;;;;;;;6.53;5.93;;;;;;;;;;5069483;28;24511;-50
2022/04/19 03:17:21;;;;;;;5.63;5.13;;;;;;;;;;5083805;28;25271;-50
2022/04/19 03:19:47;;;;;;;5.67;5.00;;;;;;;;;;5082210;28;25019;-51
2022/04/19 03:22:12;;;;;;;6.00;5.10;;;;;;;;;;5064644;28;24474;-51
2022/04/19 03:29:52;;;;;;;5.40;4.90;;;;;;;;;;5077927;28;24558;-51
2022/04/19 03:32:19;;;;;;;5.30;4.90;;;;;;;;;;5064884;28;24972;-51
2022/04/19 03:34:45;;;;;;;5.38;4.90;;;;;;;;;;5073473;28;24422;-50
2022/04/19 03:37:10;;;;;;;6.10;5.60;;;;;;;;;;5086539;28;24749;-50
2022/04/19 03:39:35;;;;;;;6.50;5.90;;;;;;;;;;5078627;28;24972;-50
2022/04/19 03:42:00;;;;;;;6.70;6.10;;;;;;;;;;5065037;28;24402;-51
2022/04/19 03:44:26;;;;;;;6.25;5.65;;;;;;;;;;5065728;28;24461;-49
2022/04/19 03:47:09;;;;;;;6.70;6.10;;;;;;;;;;5081025;28;25185;-51
2022/04/19 03:49:35;;;;;;;6.85;6.15;;;;;;;;;;5075639;28;24500;-49
2022/04/19 03:52:00;;;;;;;6.60;6.00;;;;;;;;;;5066364;28;24484;-49
2022/04/19 03:54:25;;;;;;;7.10;6.40;;;;;;;;;;5074954;28;24448;-49
2022/04/19 03:56:51;;;;;;;7.23;6.63;;;;;;;;;;5081856;28;24398;-49
2022/04/19 03:59:16;;;;;;;6.97;6.38;;;;;;;;;;5075801;28;24423;-49
2022/04/19 04:01:41;;;;;;;7.05;6.35;;;;;;;;;;5064987;28;24391;-51
2022/04/19 04:04:07;;;;;;;7.47;6.85;;;;;;;;;;5078917;28;24825;-50
2022/04/19 04:06:33;;;;;;;7.88;7.07;;;;;;;;;;5089891;28;24439;-51
2022/04/19 04:08:58;;;;;;;7.10;6.40;;;;;;;;;;5079042;28;24592;-50
2022/04/19 04:11:23;;;;;;;6.65;6.07;;;;;;;;;;5068055;28;24445;-49
2022/04/19 04:13:48;;;;;;;7.07;6.47;;;;;;;;;;5077653;28;24437;-54
2022/04/19 04:16:13;;;;;;;7.47;6.78;;;;;;;;;;5088835;28;24385;-49
2022/04/19 04:18:42;;;;;;;7.50;6.80;;;;;;;;;;5079263;28;24419;-50
2022/04/19 04:21:07;;;;;;;7.68;6.88;;;;;;;;;;5067337;28;24473;-50
2022/04/19 04:23:33;;;;;;;6.88;6.28;;;;;;;;;;5079486;28;24539;-50
2022/04/19 04:25:58;;;;;;;7.10;6.50;;;;;;;;;;5088059;28;24390;-51
2022/04/19 04:28:23;;;;;;;7.00;6.03;;;;;;;;;;5077967;28;24442;-51
2022/04/19 04:30:48;;;;;;;6.90;6.30;;;;;;;;;;5067732;28;24948;-51
2022/04/19 04:33:13;;;;;;;7.40;6.70;;;;;;;;;;5079099;28;24486;-50
2022/04/19 04:35:39;;;;;;;6.80;6.10;;;;;;;;;;5089946;28;24927;-49
2022/04/19 04:38:04;;;;;;;7.70;6.53;;;;;;;;;;5089844;28;24382;-52
2022/04/19 04:40:29;;;;;;;7.47;6.77;;;;;;;;;;5089327;28;24446;-51
2022/04/19 04:42:54;;;;;;;7.10;6.40;;;;;;;;;;5089814;28;24455;-50
2022/04/19 04:45:19;;;;;;;7.78;6.70;;;;;;;;;;5089910;28;24410;-50
2022/04/19 04:50:28;;;;;;;7.50;6.68;;;;;;;;;;5089162;28;24517;-50
2022/04/19 04:52:54;;;;;;;7.20;6.30;;;;;;;;;;5089194;28;24481;-50
2022/04/19 04:55:19;;;;;;;7.33;6.40;;;;;;;;;;5089690;28;24390;-50
2022/04/19 04:57:44;;;;;;;7.20;5.90;;;;;;;;;;5089476;28;24748;-50
2022/04/19 05:00:09;;;;;;;7.25;6.55;;;;;;;;;;5089051;28;24393;-50
2022/04/19 05:02:35;;;;;;;8.60;6.60;;;;;;;;;;5089309;28;24424;-49
2022/04/19 05:05:00;;;;;;;7.43;6.73;;;;;;;;;;5089338;28;24401;-50
2022/04/19 05:07:25;;;;;;;6.70;6.10;;;;;;;;;;5089063;28;25030;-50
2022/04/19 05:09:50;;;;;;;7.13;6.43;;;;;;;;;;5088933;28;24478;-50
2022/04/19 05:12:15;;;;;;;6.68;6.00;;;;;;;;;;5089000;28;24399;-49
2022/04/19 05:14:41;;;;;;;7.00;6.40;;;;;;;;;;5088285;28;24981;-50
2022/04/19 05:17:06;;;;;;;6.82;6.05;;;;;;;;;;5089455;28;24385;-50
2022/04/19 05:19:31;;;;;;;6.68;6.07;;;;;;;;;;5088851;28;24436;-49
2022/04/19 05:21:56;;;;;;;6.72;6.13;;;;;;;;;;5089314;28;24947;-50
2022/04/19 05:24:21;;;;;;;9.30;6.32;;;;;;;;;;5088889;28;24413;-50
2022/04/19 05:26:46;;;;;;;7.10;6.43;;;;;;;;;;5088618;28;24481;-50
2022/04/19 05:29:12;;;;;;;6.55;5.95;;;;;;;;;;5088504;28;24422;-50
2022/04/19 05:31:37;;;;;;;9.00;6.05;;;;;;;;;;5088999;28;24927;-50
2022/04/19 05:34:02;;;;;;;6.77;5.80;;;;;;;;;;5088742;28;24471;-49
2022/04/19 05:36:27;;;;;;;6.73;6.23;;;;;;;;;;5088552;28;24386;-51
2022/04/19 05:38:52;;;;;;;7.27;6.50;;;;;;;;;;5088636;28;24399;-49
2022/04/19 05:41:20;;;;;;;7.30;6.60;;;;;;;;;;5088460;28;25041;-49
2022/04/19 05:43:47;;;;;;;7.00;6.30;;;;;;;;;;5086062;28;24764;-49
2022/04/19 05:46:12;;;;;;;7.20;6.20;;;;;;;;;;5068325;28;24754;-53
2022/04/19 05:48:37;;;;;;;6.63;6.03;;;;;;;;;;5068580;28;24993;-49
2022/04/19 05:51:02;;;;;;;7.40;6.70;;;;;;;;;;5068551;28;24426;-50
2022/04/19 05:53:27;;;;;;;7.00;6.30;;;;;;;;;;5067956;28;24390;-51
2022/04/19 05:55:54;;;;;;;6.87;6.20;;;;;;;;;;5068231;28;24402;-51
2022/04/19 05:58:19;;;;;;;6.55;5.95;;;;;;;;;;5067801;28;24905;-51
2022/04/19 06:00:44;;;;;;;6.20;5.70;;;;;;;;;;5068196;28;24456;-51
2022/04/19 06:05:53;;;;;;;6.97;6.10;;;;;;;;;;5068252;28;24428;-51
2022/04/19 06:08:18;;;;;;;6.40;5.80;;;;;;;;;;5067520;28;24402;-50
2022/04/19 06:10:43;;;;;;;5.60;5.10;;;;;;;;;;5067542;28;24842;-51
2022/04/19 06:13:08;;;;;;;6.10;5.50;;;;;;;;;;5067880;28;24996;-52
2022/04/19 06:15:34;;;;;;;6.33;5.80;;;;;;;;;;5068006;28;24398;-51
2022/04/19 06:17:59;;;;;;;6.50;5.90;;;;;;;;;;5067918;28;24468;-49
2022/04/19 06:20:25;;;;;;;6.00;5.20;;;;;;;;;;5067142;28;24775;-49
2022/04/19 06:22:50;;;;;;;6.37;5.80;;;;;;;;;;5067541;28;24385;-49
2022/04/19 06:25:15;;;;;;;6.55;5.80;;;;;;;;;;5067712;28;24409;-49
2022/04/19 06:27:40;;;;;;;6.30;5.63;;;;;;;;;;5067745;28;24441;-49
2022/04/19 06:30:06;;;;;;;7.57;5.93;;;;;;;;;;5067516;28;24506;-51
2022/04/19 06:32:31;;;;;;;7.00;6.30;;;;;;;;;;5066653;28;24429;-50
2022/04/19 06:34:56;;;;;;;6.68;5.95;;;;;;;;;;5066367;28;24468;-50
2022/04/19 06:37:22;;;;;;;6.20;5.60;;;;;;;;;;5069465;28;24995;-51
2022/04/19 06:39:47;;;;;;;6.20;5.60;;;;;;;;;;5085907;28;24398;-50
2022/04/19 06:42:12;;;;;;;6.10;5.40;;;;;;;;;;5084525;28;24425;-50
2022/04/19 06:44:38;;;;;;;6.65;6.05;;;;;;;;;;5086159;28;24386;-50
2022/04/19 06:47:03;;;;;;;6.83;6.17;;;;;;;;;;5087645;28;24447;-50
2022/04/19 06:49:28;;;;;;;7.63;5.90;;;;;;;;;;5086969;28;24413;-50
2022/04/19 06:51:54;;;;;;;6.23;5.63;;;;;;;;;;5085978;28;24513;-50
2022/04/19 06:54:19;;;;;;;7.10;5.90;;;;;;;;;;5085642;28;24436;-51
2022/04/19 06:56:45;;;;;;;6.30;5.70;;;;;;;;;;5079648;28;24452;-50
2022/04/19 06:59:10;;;;;;;6.35;5.75;;;;;;;;;;5065457;28;24387;-51
2022/04/19 07:01:38;;;;;;;6.30;5.70;;;;;;;;;;5066557;28;24750;-50
2022/04/19 07:04:03;;;;;;;7.27;6.47;;;;;;;;;;5066780;28;24734;-50
2022/04/19 07:06:28;;;;;;;7.53;6.07;;;;;;;;;;5067168;28;24405;-51
2022/04/19 07:08:53;;;;;;;7.82;6.32;;;;;;;;;;5066743;28;24398;-50
2022/04/19 07:11:18;;;;;;;6.90;6.20;;;;;;;;;;5066812;28;24422;-51
2022/04/19 07:13:44;;;;;;;6.10;5.60;;;;;;;;;;5066894;28;24460;-50
2022/04/19 07:16:09;;;;;;;6.43;5.82;;;;;;;;;;5066694;28;24776;-51
2022/04/19 07:18:34;;;;;;;6.37;5.60;;;;;;;;;;5066456;28;24757;-50
2022/04/19 07:26:44;;;;;;;8.83;7.03;;;;;;;;;;5066395;28;24398;-51
2022/04/19 07:29:13;;;;;;;7.40;6.70;;;;;;;;;;5066289;28;24429;-51
2022/04/19 07:31:39;;;;;;;7.82;6.93;;;;;;;;;;5065795;28;24465;-50
2022/04/19 07:34:04;;;;;;;8.57;6.70;;;;;;;;;;5066404;28;24429;-51
2022/04/19 07:36:29;;;;;;;6.60;6.00;;;;;;;;;;5065856;28;24943;-52
2022/04/19 07:38:57;;;;;;;6.90;6.10;;;;;;;;;;5066507;28;24466;-51
2022/04/19 07:41:22;;;;;;;6.72;5.70;;;;;;;;;;5066069;28;24521;-50
2022/04/19 07:43:47;;;;;;;6.60;6.00;;;;;;;;;;5083368;28;24493;-51
2022/04/19 07:46:15;;;;;;;6.70;6.10;;;;;;;;;;5086635;28;24379;-49
2022/04/19 07:48:40;;;;;;;7.25;6.55;;;;;;;;;;5086470;28;24412;-51
2022/04/19 07:51:06;;;;;;;8.93;7.70;;;;;;;;;;5086368;28;24418;-51
2022/04/19 07:53:31;;;;;;;9.40;7.70;;;;;;;;;;5086767;28;24387;-50
2022/04/19 07:55:57;;;;;;;10.20;8.70;;;;;;;;;;5086408;28;24937;-50
2022/04/19 07:58:23;;;;;;;7.85;6.90;;;;;;;;;;5086538;28;24430;-50
2022/04/19 08:00:48;;;;;;;8.83;7.57;;;;;;;;;;5086240;28;24483;-50
2022/04/19 08:03:13;;;;;;;7.28;6.57;;;;;;;;;;5085886;28;24393;-50
2022/04/19 08:05:39;;;;;;;8.35;6.70;;;;;;;;;;5086364;28;24404;-50
2022/04/19 08:08:04;;;;;;;8.60;6.78;;;;;;;;;;5086330;28;24398;-51
2022/04/19 08:10:29;;;;;;;7.30;6.60;;;;;;;;;;5086481;28;24434;-50
2022/04/19 08:12:54;;;;;;;9.35;6.90;;;;;;;;;;5085817;28;24489;-50
2022/04/19 08:15:20;;;;;;;6.90;6.20;;;;;;;;;;5086116;28;24437;-50
2022/04/19 08:17:45;;;;;;;7.43;6.60;;;;;;;;;;5086166;28;24402;-50
2022/04/19 08:20:13;;;;;;;6.97;6.28;;;;;;;;;;5086352;28;24422;-50
2022/04/19 08:22:38;;;;;;;8.63;6.82;;;;;;;;;;5085913;28;24459;-51
2022/04/19 08:25:04;;;;;;;7.40;6.60;;;;;;;;;;5086329;28;24963;-50
2022/04/19 08:27:29;;;;;;;10.30;8.00;;;;;;;;;;5085635;28;24386;-49
2022/04/19 08:29:54;;;;;;;8.27;6.90;;;;;;;;;;5085902;28;24460;-50
2022/04/19 08:32:20;;;;;;;6.97;6.00;;;;;;;;;;5085813;28;24402;-50
2022/04/19 08:34:45;;;;;;;6.05;5.45;;;;;;;;;;5086153;28;24899;-50
2022/04/19 08:37:10;;;;;;;8.03;6.43;;;;;;;;;;5086235;28;24421;-50
2022/04/19 08:39:36;;;;;;;6.53;5.90;;;;;;;;;;5085994;28;24986;-50
2022/04/19 08:42:02;;;;;;;5.93;5.43;;;;;;;;;;5083597;28;24400;-49
2022/04/19 08:44:27;;;;;;;6.50;5.82;;;;;;;;;;5065349;28;24403;-49
2022/04/19 08:46:57;;;;;;;6.90;5.30;;;;;;;;;;5065838;28;24634;-50
2022/04/19 08:49:22;;;;;;;7.25;6.03;;;;;;;;;;5066852;28;24910;-50
2022/04/19 08:51:47;;;;;;;6.45;5.43;;;;;;;;;;5068907;28;24398;-49
2022/04/19 08:59:40;;;;;;;7.00;4.97;;;;;;;;;;5087336;28;24436;-49
2022/04/19 09:02:05;;;;;;;5.43;4.63;;;;;;;;;;5078321;28;24789;-50
2022/04/19 09:04:30;;;;;;;6.10;4.80;;;;;;;;;;5067293;28;24394;-50
2022/04/19 09:06:56;;;;;;;5.40;4.80;;;;;;;;;;5069075;28;24478;-50
2022/04/19 09:09:25;;;;;;;8.32;5.20;;;;;;;;;;5068185;28;24989;-50
2022/04/19 09:11:51;;;;;;;5.10;4.60;;;;;;;;;;5068599;28;25025;-49
2022/04/19 09:14:17;;;;;;;5.50;4.57;;;;;;;;;;5069167;28;24394;-50
2022/04/19 09:16:42;;;;;;;6.22;4.82;;;;;;;;;;5069178;28;24391;-50
2022/04/19 09:19:08;;;;;;;4.90;4.37;;;;;;;;;;5068775;28;24456;-49
2022/04/19 09:21:40;;;;;;;4.95;4.47;;;;;;;;;;5068777;28;24387;-51
2022/04/19 09:24:18;;;;;;;4.93;4.43;;;;;;;;;;5068477;28;24478;-50
2022/04/19 09:26:44;;;;;;;4.53;4.13;;;;;;;;;;5068627;28;24423;-50
2022/04/19 09:29:18;;;;;;;5.80;4.50;;;;;;;;;;5068632;28;24441;-49
2022/04/19 09:31:43;;;;;;;8.13;4.50;;;;;;;;;;5068434;28;24510;-50
2022/04/19 09:34:08;;;;;;;6.13;4.60;;;;;;;;;;5068224;28;25211;-50
2022/04/19 09:36:34;;;;;;;6.30;4.10;;;;;;;;;;5068499;28;24816;-50
2022/04/19 09:38:59;;;;;;;4.87;4.20;;;;;;;;;;5068789;28;24812;-50
2022/04/19 09:41:30;;;;;;;6.43;4.53;;;;;;;;;;5069698;28;24382;-50
2022/04/19 09:44:05;;;;;;;4.85;4.45;;;;;;;;;;5088342;28;24957;-50
2022/04/19 09:46:30;;;;;;;4.70;4.20;;;;;;;;;;5088982;28;24439;-50
2022/04/19 09:48:55;;;;;;;4.60;4.20;;;;;;;;;;5088745;28;24403;-50
2022/04/19 09:51:30;;;;;;;5.15;4.40;;;;;;;;;;5088448;28;24463;-51
2022/04/19 09:53:55;;;;;;;4.97;3.85;;;;;;;;;;5083006;28;24468;-50
2022/04/19 09:56:21;;;;;;;4.70;3.92;;;;;;;;;;5063819;28;25486;-50
2022/04/19 09:58:47;;;;;;;4.70;4.00;;;;;;;;;;5063583;28;24450;-51
2022/04/19 10:09:26;;;;;;;3.37;2.93;;;;;;;;;;5062941;28;24517;-51
2022/04/19 10:11:52;;;;;;;4.00;3.35;;;;;;;;;;5062182;28;24423;-51
2022/04/19 10:14:18;;;;;;;4.30;3.90;;;;;;;;;;5061262;28;24979;-50
2022/04/19 10:16:43;;;;;;;3.92;3.63;;;;;;;;;;5061340;28;24597;-51
2022/04/19 10:19:09;;;;;;;4.03;3.72;;;;;;;;;;5059025;28;24443;-51
2022/04/19 10:21:39;;;;;;;3.88;3.47;;;;;;;;;;5062097;28;24450;-50
2022/04/19 10:24:08;;;;;;;4.00;3.60;;;;;;;;;;5059936;28;24565;-51
2022/04/19 10:26:39;;;;;;;4.30;3.90;;;;;;;;;;5062117;28;24429;-50
2022/04/19 10:29:14;;;;;;;6.67;3.73;;;;;;;;;;5060507;28;24836;-50
2022/04/19 10:31:39;;;;;;;4.60;3.80;;;;;;;;;;5059753;28;24487;-51
2022/04/19 10:34:05;;;;;;;4.33;3.70;;;;;;;;;;5060382;28;24438;-51
2022/04/19 10:36:33;;;;;;;6.83;3.97;;;;;;;;;;5061363;28;24985;-49
2022/04/19 10:39:16;;;;;;;3.40;3.10;;;;;;;;;;5064553;28;24541;-49
2022/04/19 10:41:47;;;;;;;3.65;3.35;;;;;;;;;;5065156;28;24468;-50
2022/04/19 10:44:32;;;;;;;3.60;3.30;;;;;;;;;;5060525;28;25064;-50
2022/04/19 10:47:03;;;;;;;3.03;2.72;;;;;;;;;;5059784;28;25342;-50
2022/04/19 10:49:28;;;;;;;3.20;2.90;;;;;;;;;;5060369;28;24441;-50
2022/04/19 10:51:59;;;;;;;4.25;3.20;;;;;;;;;;5060313;28;24425;-50
2022/04/19 10:54:43;;;;;;;3.50;2.92;;;;;;;;;;5061017;28;24553;-49
2022/04/19 10:59:59;;;;;;;4.10;2.80;;;;;;;;;;5060175;28;24481;-50
2022/04/19 11:02:35;;;;;;;2.80;2.60;;;;;;;;;;5059061;28;24530;-49
2022/04/19 11:05:01;;;;;;;3.30;2.90;;;;;;;;;;5059670;28;24551;-50
2022/04/19 11:07:42;;;;;;;3.30;3.00;;;;;;;;;;5061147;28;24521;-49
2022/04/19 11:10:07;;;;;;;3.08;2.88;;;;;;;;;;5061192;28;25020;-49
2022/04/19 11:12:51;;;;;;;5.33;3.30;;;;;;;;;;5059493;28;25074;-50
2022/04/19 11:15:16;;;;;;;5.95;3.00;;;;;;;;;;5060243;28;28227;-50
2022/04/19 11:17:41;;;;;;;4.00;3.00;;;;;;;;;;5061461;28;25610;-50
2022/04/19 11:20:07;;;;;;;3.30;3.00;;;;;;;;;;5059698;28;24441;-50
2022/04/19 11:22:42;;;;;;;3.20;2.90;;;;;;;;;;5060122;28;24584;-50
2022/04/19 11:25:07;;;;;;;2.70;2.50;;;;;;;;;;5060332;28;24507;-50
2022/04/19 11:27:51;;;;;;;4.33;2.77;;;;;;;;;;5060258;28;24430;-50
2022/04/19 11:30:16;;;;;;;4.03;3.00;;;;;;;;;;5060304;28;24454;-50
2022/04/19 11:32:48;;;;;;;3.00;2.67;;;;;;;;;;5060562;28;24897;-49
2022/04/19 11:35:16;;;;;;;3.00;2.50;;;;;;;;;;5061227;28;25407;-49
2022/04/19 11:37:42;;;;;;;3.40;2.90;;;;;;;;;;5060960;28;25036;-50
2022/04/19 11:48:27;;;;;;;3.40;2.50;;;;;;;;;;5060952;28;24524;-50
2022/04/19 11:50:53;;;;;;;2.80;2.50;;;;;;;;;;5060816;28;24464;-49
2022/04/19 11:53:24;;;;;;;2.77;2.30;;;;;;;;;;5060235;28;24593;-50
2022/04/19 11:55:51;;;;;;;3.10;2.30;;;;;;;;;;5059642;28;24422;-50
2022/04/19 11:58:16;;;;;;;2.90;2.60;;;;;;;;;;5061052;28;24433;-50
2022/04/19 12:00:41;;;;;;;4.45;2.50;;;;;;;;;;5060352;28;24507;-56
2022/04/19 12:03:23;;;;;;;2.27;2.07;;;;;;;;;;5059625;28;24456;-50
2022/04/19 12:05:48;;;;;;;3.00;2.40;;;;;;;;;;5060942;28;24423;-50
2022/04/19 12:08:28;;;;;;;2.80;2.20;;;;;;;;;;5060689;28;24430;-50
2022/04/19 12:10:53;;;;;;;2.40;2.20;;;;;;;;;;5060453;28;24878;-50
2022/04/19 12:13:19;;;;;;;2.70;2.30;;;;;;;;;;5059277;28;25083;-49
2022/04/19 12:15:44;;;;;;;2.30;2.10;;;;;;;;;;5060438;28;24488;-50
2022/04/19 12:18:10;;;;;;;2.63;2.30;;;;;;;;;;5060783;28;24414;-50
2022/04/19 12:20:42;;;;;;;2.78;2.47;;;;;;;;;;5058924;28;24508;-51
2022/04/19 12:23:16;;;;;;;3.47;2.60;;;;;;;;;;5060947;28;24491;-49
2022/04/19 12:25:41;;;;;;;3.13;2.42;;;;;;;;;;5062857;28;24429;-50
2022/04/19 12:28:09;;;;;;;2.90;2.13;;;;;;;;;;5064443;28;24769;-50
2022/04/19 12:30:35;;;;;;;2.80;2.50;;;;;;;;;;5063752;28;24454;-51
2022/04/19 12:33:03;;;;;;;3.13;2.90;;;;;;;;;;5063101;28;24458;-49
2022/04/19 12:35:35;;;;;;;3.17;2.65;;;;;;;;;;5063775;28;24577;-50
2022/04/19 12:38:10;;;;;;;2.30;2.10;;;;;;;;;;5063998;28;24422;-50
2022/04/19 12:40:38;;;;;;;2.92;2.55;;;;;;;;;;5064676;28;25097;-51
2022/04/19 12:43:04;;;;;;;3.60;2.90;;;;;;;;;;5063765;28;24460;-50
2022/04/19 12:45:33;;;;;;;4.40;2.50;;;;;;;;;;5062970;28;24968;-51
2022/04/19 12:48:00;;;;;;;2.75;2.40;;;;;;;;;;5064631;28;24575;-51
2022/04/19 12:50:27;;;;;;;2.30;2.20;;;;;;;;;;5062068;28;24456;-49
2022/04/19 12:52:52;;;;;;;2.27;2.10;;;;;;;;;;5063686;28;24488;-50
2022/04/19 12:55:27;;;;;;;2.30;2.10;;;;;;;;;;5062790;28;24777;-51
2022/04/19 12:58:04;;;;;;;3.08;2.28;;;;;;;;;;5063958;28;24432;-50
2022/04/19 13:00:29;;;;;;;2.90;2.30;;;;;;;;;;5062539;28;28593;-50
2022/04/19 13:02:57;;;;;;;3.08;2.22;;;;;;;;;;5061171;28;24552;-51
2022/04/19 13:12:16;;;;;;;4.03;2.40;;;;;;;;;;5061376;28;24528;-51
2022/04/19 13:13:36;;;;;;;2.70;2.15;;;;;;;;;;5062844;28;25048;-49
2022/04/19 13:16:01;;;;;;;2.58;2.38;;;;;;;;;;5062343;28;24434;-50
2022/04/19 13:18:26;;;;;;;2.60;2.20;;;;;;;;;;5062639;28;26320;-49
2022/04/19 13:20:51;;;;;;;3.20;2.60;;;;;;;;;;5063604;28;24488;-49
2022/04/19 13:23:16;;;;;;;2.50;2.30;;;;;;;;;;5061339;28;24425;-49
2022/04/19 13:25:43;;;;;;;2.50;2.30;;;;;;;;;;5062019;28;24453;-50
2022/04/19 13:28:09;;;;;;;4.82;2.95;;;;;;;;;;5062163;28;24543;-50
2022/04/19 13:30:35;;;;;;;2.30;2.10;;;;;;;;;;5060952;28;24827;-50
2022/04/19 13:33:00;;;;;;;2.80;2.10;;;;;;;;;;5061592;28;24426;-51
2022/04/19 13:35:25;;;;;;;3.60;2.40;;;;;;;;;;5059943;28;24425;-50
2022/04/19 13:40:34;;;;;;;2.60;2.40;;;;;;;;;;5062402;28;24789;-51
2022/04/19 13:42:59;;;;;;;3.22;2.10;;;;;;;;;;5062091;28;24418;-51
2022/04/19 13:45:25;;;;;;;2.40;2.10;;;;;;;;;;5062434;28;24491;-51
2022/04/19 13:47:50;;;;;;;2.10;2.00;;;;;;;;;;5062251;28;24436;-50
2022/04/19 13:50:15;;;;;;;2.43;2.20;;;;;;;;;;5063624;28;24855;-50
2022/04/19 13:52:40;;;;;;;2.65;2.20;;;;;;;;;;5060722;28;25048;-51
2022/04/19 13:55:06;;;;;;;2.90;2.70;;;;;;;;;;5061374;28;24543;-51
2022/04/19 13:57:31;;;;;;;5.15;3.00;;;;;;;;;;5062519;28;24517;-51
2022/04/19 13:59:56;;;;;;;3.58;3.00;;;;;;;;;;5060272;28;24677;-51
2022/04/19 14:02:21;;;;;;;4.30;3.50;;;;;;;;;;5061867;28;24438;-51
2022/04/19 14:04:46;;;;;;;7.20;3.67;;;;;;;;;;5061050;28;24610;-50
2022/04/19 14:07:12;;;;;;;3.90;3.50;;;;;;;;;;5062481;28;24891;-50
2022/04/19 14:09:38;;;;;;;3.90;3.50;;;;;;;;;;5061864;28;24415;-50
2022/04/19 14:12:04;;;;;;;3.70;3.40;;;;;;;;;;5062372;28;24453;-50
2022/04/19 14:14:29;;;;;;;4.10;3.70;;;;;;;;;;5060680;28;24423;-50
2022/04/19 14:16:54;;;;;;;4.83;3.80;;;;;;;;;;5061160;28;24422;-51
2022/04/19 14:19:20;;;;;;;4.10;3.60;;;;;;;;;;5061783;28;24467;-50
2022/04/19 14:21:45;;;;;;;4.57;3.50;;;;;;;;;;5060397;28;24441;-50
2022/04/19 14:24:11;;;;;;;4.00;3.60;;;;;;;;;;5060923;28;25043;-50
2022/04/19 14:26:36;;;;;;;3.72;3.38;;;;;;;;;;5060091;28;24438;-51
2022/04/19 14:34:30;;;;;;;3.58;3.28;;;;;;;;;;5060885;28;24406;-51
2022/04/19 14:36:55;;;;;;;3.58;3.00;;;;;;;;;;5061424;28;24768;-51
2022/04/19 14:39:20;;;;;;;3.85;3.55;;;;;;;;;;5062215;28;24457;-51
2022/04/19 14:41:45;;;;;;;3.97;3.33;;;;;;;;;;5059965;28;24972;-51
2022/04/19 14:44:11;;;;;;;4.10;3.70;;;;;;;;;;5060510;28;24433;-51
2022/04/19 14:46:36;;;;;;;3.80;3.50;;;;;;;;;;5058811;28;24434;-51
2022/04/19 14:49:01;;;;;;;3.60;3.00;;;;;;;;;;5060727;28;24434;-51
2022/04/19 14:54:10;;;;;;;3.70;3.40;;;;;;;;;;5059118;28;24424;-50
2022/04/19 14:56:35;;;;;;;4.00;3.47;;;;;;;;;;5059966;28;24415;-51
2022/04/19 14:59:00;;;;;;;3.83;3.53;;;;;;;;;;5060034;28;24739;-50
2022/04/19 15:01:26;;;;;;;4.05;3.20;;;;;;;;;;5060082;28;24471;-53
2022/04/19 15:03:51;;;;;;;4.10;3.10;;;;;;;;;;5060139;28;24430;-51
2022/04/19 15:06:16;;;;;;;4.60;4.10;;;;;;;;;;5060294;28;24431;-50
2022/04/19 15:08:42;;;;;;;3.67;3.30;;;;;;;;;;5060015;28;24960;-50
2022/04/19 15:11:07;;;;;;;3.70;3.17;;;;;;;;;;5059643;28;24464;-50
2022/04/19 15:13:33;;;;;;;3.63;3.30;;;;;;;;;;5061161;28;24429;-50
2022/04/19 15:15:58;;;;;;;3.80;3.40;;;;;;;;;;5059763;28;24434;-51
2022/04/19 15:18:23;;;;;;;4.13;3.42;;;;;;;;;;5059648;28;26833;-49
2022/04/19 15:20:49;;;;;;;5.30;4.00;;;;;;;;;;5060990;28;24441;-50
2022/04/19 15:23:15;;;;;;;4.50;3.90;;;;;;;;;;5060228;28;24426;-50
2022/04/19 15:25:40;;;;;;;4.18;3.50;;;;;;;;;;5059768;28;25019;-50
2022/04/19 15:28:06;;;;;;;4.40;3.80;;;;;;;;;;5059554;28;24536;-50
2022/04/19 15:30:32;;;;;;;4.40;3.80;;;;;;;;;;5059040;28;25379;-51
2022/04/19 15:32:57;;;;;;;4.60;3.70;;;;;;;;;;5060082;28;24571;-51
2022/04/19 15:35:22;;;;;;;4.60;3.70;;;;;;;;;;5059333;28;24737;-51
2022/04/19 15:37:48;;;;;;;4.10;3.70;;;;;;;;;;5059745;28;25037;-51
2022/04/19 15:40:13;;;;;;;4.63;4.07;;;;;;;;;;5061254;28;24846;-51